^^
Meteo Knjazevac Station Historical Data
Daily Summary for September 11, 2021 Units:  Metric    English   Both
Daily Weekly Monthly Yearly Custom
  High: Low: Average:
Temperature: 29.3 °C 12.9 °C 17.6 °C
Dew Point: 18.4 °C 10.6 °C 13.1 °C
Humidity: 88% 51% 76%
Wind Speed: 4.8km/h 0km/h 1.3km/h
Wind Gust: 14.5km/h - -
Wind- - South
Pressure: 1017.8 hPa 1016.1 hPa -
Precipitation: 0 mm    
Historical Graphs
 
 
Tabular Data for September 11, 2021
Time Temperature Dew Point Pressure Wind Wind Speed Wind Gust Humidity Rainfall Rate (Hourly) solar Conditions
00:00 18.9 °C 13.7 °C 1017.2 hPa Calm   4.8 km/h 72% 0 mm 0 W/m2
00:10 18.8 °C 13.8 °C 1017.2 hPa WNW 1.6 km/h 3.2 km/h 73% 0 mm 0 W/m2
00:20 18.3 °C 13.6 °C 1017.2 hPa Calm   3.2 km/h 74% 0 mm 0 W/m2
00:30 18.1 °C 13.6 °C 1016.8 hPa Calm   1.6 km/h 75% 0 mm 0 W/m2
00:40 17.8 °C 13.3 °C 1016.8 hPa SW 1.6 km/h 4.8 km/h 75% 0 mm 0 W/m2
00:50 17.4 °C 12.9 °C 1017.2 hPa West 3.2 km/h 8 km/h 75% 0 mm 0 W/m2
01:00 17.3 °C 12.6 °C 1016.8 hPa WNW 1.6 km/h 4.8 km/h 74% 0 mm 0 W/m2
01:10 17.2 °C 12.7 °C 1016.8 hPa West 1.6 km/h 4.8 km/h 75% 0 mm 0 W/m2
01:20 17 °C 12.6 °C 1016.8 hPa Calm   3.2 km/h 75% 0 mm 0 W/m2
01:30 17 °C 12.6 °C 1016.8 hPa Calm   3.2 km/h 75% 0 mm 0 W/m2
01:40 16.7 °C 12.7 °C 1016.8 hPa WSW 1.6 km/h 3.2 km/h 77% 0 mm 0 W/m2
01:50 16.3 °C 12.5 °C 1016.8 hPa WSW 3.2 km/h 4.8 km/h 78% 0 mm 0 W/m2
02:00 15.9 °C 12.1 °C 1016.8 hPa West 3.2 km/h 6.4 km/h 78% 0 mm 0 W/m2
02:10 15.7 °C 11.9 °C 1016.8 hPa West 1.6 km/h 4.8 km/h 78% 0 mm 0 W/m2
02:20 15.6 °C 11.8 °C 1016.8 hPa WNW 1.6 km/h 3.2 km/h 78% 0 mm 0 W/m2
02:30 15.5 °C 11.7 °C 1016.8 hPa Calm   3.2 km/h 78% 0 mm 0 W/m2
02:40 15.3 °C 11.7 °C 1016.8 hPa Calm   3.2 km/h 79% 0 mm 0 W/m2
02:50 15.4 °C 11.8 °C 1016.8 hPa Calm   3.2 km/h 79% 0 mm 0 W/m2
03:00 15.2 °C 11.8 °C 1016.8 hPa Calm   3.2 km/h 80% 0 mm 0 W/m2
03:10 15.2 °C 11.7 °C 1016.8 hPa Calm   1.6 km/h 80% 0 mm 0 W/m2
03:20 14.8 °C 11.4 °C 1016.5 hPa Calm   3.2 km/h 80% 0 mm 0 W/m2
03:30 14.6 °C 11.4 °C 1016.8 hPa Calm   1.6 km/h 81% 0 mm 0 W/m2
03:40 14.3 °C 11.4 °C 1016.8 hPa West 1.6 km/h 3.2 km/h 83% 0 mm 0 W/m2
03:50 14.2 °C 11.3 °C 1016.5 hPa Calm   4.8 km/h 83% 0 mm 0 W/m2
04:00 14 °C 11.2 °C 1016.8 hPa West 1.6 km/h 3.2 km/h 83% 0 mm 0 W/m2
04:10 14 °C 11.2 °C 1016.8 hPa NNW 1.6 km/h 3.2 km/h 83% 0 mm 0 W/m2
04:20 13.9 °C 11.2 °C 1016.8 hPa Calm   3.2 km/h 84% 0 mm 0 W/m2
04:30 13.8 °C 11.2 °C 1016.8 hPa WNW 1.6 km/h 3.2 km/h 84% 0 mm 0 W/m2
04:40 13.7 °C 11.1 °C 1017.2 hPa Calm   3.2 km/h 84% 0 mm 0 W/m2
04:50 13.6 °C 11.1 °C 1017.2 hPa North 1.6 km/h 6.4 km/h 85% 0 mm 0 W/m2
05:00 13.4 °C 10.9 °C 1017.2 hPa Calm   3.2 km/h 85% 0 mm 3 W/m2
05:10 13.3 °C 10.8 °C 1017.2 hPa Calm   1.6 km/h 85% 0 mm 8 W/m2
05:20 13.1 °C 10.6 °C 1017.2 hPa North 3.2 km/h 4.8 km/h 85% 0 mm 16 W/m2
05:30 13.1 °C 10.8 °C 1017.2 hPa Calm   3.2 km/h 86% 0 mm 24 W/m2
05:40 13 °C 10.7 °C 1017.5 hPa WNW 1.6 km/h 3.2 km/h 86% 0 mm 32 W/m2
05:50 12.9 °C 10.8 °C 1017.5 hPa Calm   3.2 km/h 87% 0 mm 41 W/m2
06:00 12.9 °C 10.6 °C 1017.5 hPa Calm   3.2 km/h 86% 0 mm 49 W/m2
06:10 13 °C 10.9 °C 1017.5 hPa Calm   3.2 km/h 87% 0 mm 95 W/m2
06:20 13.1 °C 10.8 °C 1017.5 hPa Calm   1.6 km/h 86% 0 mm 116 W/m2
06:30 13.2 °C 10.9 °C 1017.5 hPa Calm   3.2 km/h 86% 0 mm 145 W/m2
06:40 13.3 °C 11.2 °C 1017.5 hPa Calm   1.6 km/h 87% 0 mm 172 W/m2
06:50 13.6 °C 11.6 °C 1017.8 hPa West 1.6 km/h 3.2 km/h 88% 0 mm 202 W/m2
07:00 13.8 °C 11.5 °C 1017.8 hPa NNW 1.6 km/h 4.8 km/h 86% 0 mm 231 W/m2
07:10 14.2 °C 11.9 °C 1017.8 hPa West 1.6 km/h 4.8 km/h 86% 0 mm 269 W/m2
07:20 14.5 °C 11.8 °C 1017.8 hPa Calm   3.2 km/h 84% 0 mm 302 W/m2
07:30 15.1 °C 12.2 °C 1017.5 hPa West 1.6 km/h 4.8 km/h 83% 0 mm 333 W/m2
07:40 15.5 °C 12.3 °C 1017.5 hPa Calm   3.2 km/h 81% 0 mm 367 W/m2
07:50 16 °C 12.6 °C 1017.5 hPa Calm   3.2 km/h 80% 0 mm 399 W/m2
08:00 16.6 °C 12.9 °C 1017.5 hPa WSW 1.6 km/h 4.8 km/h 79% 0 mm 437 W/m2
08:10 16.9 °C 13.1 °C 1017.5 hPa Calm   3.2 km/h 78% 0 mm 481 W/m2
08:20 17.6 °C 13.7 °C 1017.5 hPa SSE 1.6 km/h 6.4 km/h 78% 0 mm 520 W/m2
08:30 18.3 °C 14.2 °C 1017.5 hPa ENE 3.2 km/h 9.7 km/h 77% 0 mm 555 W/m2
08:40 18.9 °C 14.2 °C 1017.2 hPa NNE 1.6 km/h 9.7 km/h 74% 0 mm 590 W/m2
08:50 19.4 °C 14.3 °C 1017.2 hPa Calm   9.7 km/h 72% 0 mm 620 W/m2
09:00 20.4 °C 14.6 °C 1017.2 hPa North 3.2 km/h 8 km/h 69% 0 mm 650 W/m2
09:10 21.8 °C 15.7 °C 1017.2 hPa NNE 3.2 km/h 11.3 km/h 68% 0 mm 677 W/m2
09:20 22.9 °C 15.7 °C 1017.2 hPa NE 3.2 km/h 11.3 km/h 64% 0 mm 702 W/m2
09:30 23.8 °C 16.3 °C 1017.2 hPa NNE 4.8 km/h 11.3 km/h 63% 0 mm 727 W/m2
09:40 24.4 °C 16.9 °C 1017.2 hPa NNE 3.2 km/h 11.3 km/h 63% 0 mm 751 W/m2
09:50 24.9 °C 16.9 °C 1017.2 hPa NNW 1.6 km/h 6.4 km/h 61% 0 mm 774 W/m2
10:00 25.7 °C 17.3 °C 1017.2 hPa NNW 1.6 km/h 8 km/h 60% 0 mm 796 W/m2
10:10 26.2 °C 17.6 °C 1016.8 hPa NNE 1.6 km/h 9.7 km/h 59% 0 mm 817 W/m2
10:20 26.7 °C 17.7 °C 1016.8 hPa NE 4.8 km/h 11.3 km/h 58% 0 mm 836 W/m2
10:30 27.1 °C 18.4 °C 1016.8 hPa NE 1.6 km/h 14.5 km/h 59% 0 mm 855 W/m2
10:40 27.8 °C 18.4 °C 1016.8 hPa NNE 3.2 km/h 9.7 km/h 57% 0 mm 872 W/m2
10:50 28.3 °C 18.1 °C 1016.5 hPa NNE 1.6 km/h 8 km/h 54% 0 mm 170 W/m2
11:00 28.6 °C 18.1 °C 1016.5 hPa NNE 4.8 km/h 9.7 km/h 53% 0 mm 902 W/m2
11:10 28.9 °C 17.7 °C 1016.5 hPa ENE 3.2 km/h 9.7 km/h 51% 0 mm 915 W/m2
11:20 29.3 °C 18.1 °C 1016.1 hPa ENE 1.6 km/h 8 km/h 51% 0 mm 916 W/m2
Knjazevac, Serbia
Compliments of Weather Underground - 2 mb